Time;durP1;ratioP1;P1;durP2;ratioP2;P2;SDS_P1;SDS_P2;PMS_P1;PMS_P2;Temp;Humidity;BMP_temperature;BMP_pressure;BME280_temperature;BME280_humidity;BME280_pressure;Samples;Min_cycle;Max_cycle;Signal;HPM_P1;HPM_P2
2021/07/12 00:01:35;;;;;;;0.20;0.20;;;15.00;99.90;;;;;;5053861;28;20052;-74
2021/07/12 00:04:00;;;;;;;0.10;0.10;;;15.00;99.90;;;;;;5053526;28;20067;-74
2021/07/12 00:06:26;;;;;;;0.20;0.20;;;15.00;99.90;;;;;;5055069;28;20049;-74
2021/07/12 00:08:52;;;;;;;0.10;0.10;;;14.80;99.90;;;;;;5053518;28;20472;-74
2021/07/12 00:11:18;;;;;;;0.63;0.32;;;14.70;99.90;;;;;;5054683;28;20075;-74
2021/07/12 00:13:43;;;;;;;0.13;0.13;;;14.60;99.90;;;;;;5054899;28;20024;-74
2021/07/12 00:16:09;;;;;;;0.10;0.10;;;14.50;99.90;;;;;;5054815;28;20036;-74
2021/07/12 00:18:35;;;;;;;0.22;0.22;;;14.60;99.90;;;;;;5054804;28;20040;-74
2021/07/12 00:21:01;;;;;;;0.10;0.10;;;14.80;99.90;;;;;;5054711;28;20025;-74
2021/07/12 00:23:27;;;;;;;0.00;0.00;;;14.80;99.90;;;;;;5053303;28;20503;-74
2021/07/12 00:25:52;;;;;;;0.03;0.03;;;14.90;99.90;;;;;;5054535;28;20028;-74
2021/07/12 00:28:18;;;;;;;0.10;0.10;;;15.00;99.90;;;;;;5053267;28;20032;-74
2021/07/12 00:30:44;;;;;;;0.10;0.10;;;15.20;99.90;;;;;;5053142;28;20076;-74
2021/07/12 00:33:10;;;;;;;0.00;0.00;;;15.50;99.90;;;;;;5053243;28;20245;-74
2021/07/12 00:35:36;;;;;;;0.10;0.10;;;15.60;99.90;;;;;;5054495;28;20032;-74
2021/07/12 00:38:01;;;;;;;0.10;0.10;;;15.70;99.90;;;;;;5036648;28;20374;-74
2021/07/12 00:40:29;;;;;;;0.10;0.10;;;15.70;99.90;;;;;;5054183;28;20047;-74
2021/07/12 00:42:55;;;;;;;0.10;0.10;;;15.60;99.90;;;;;;5054234;28;20029;-74
2021/07/12 00:45:24;;;;;;;0.10;0.10;;;15.50;99.90;;;;;;5052910;28;20047;-74
2021/07/12 00:47:52;;;;;;;0.10;0.10;;;15.70;99.90;;;;;;5054358;28;20024;-74
2021/07/12 00:50:20;;;;;;;0.10;0.10;;;15.90;99.90;;;;;;5053008;28;20017;-74
2021/07/12 00:52:47;;;;;;;0.10;0.10;;;15.80;99.90;;;;;;5052668;28;20446;-74
2021/07/12 00:55:29;;;;;;;0.10;0.10;;;16.00;99.90;;;;;;5052763;28;20453;-74
2021/07/12 00:57:55;;;;;;;0.10;0.10;;;15.90;99.90;;;;;;5052868;28;20029;-74
2021/07/12 01:00:24;;;;;;;0.10;0.10;;;15.90;99.90;;;;;;5036028;28;20036;-74
2021/07/12 01:02:51;;;;;;;0.10;0.10;;;15.80;99.90;;;;;;5053809;28;20433;-74
2021/07/12 01:05:20;;;;;;;0.10;0.10;;;15.80;99.90;;;;;;5053739;28;20594;-74
2021/07/12 01:07:46;;;;;;;0.45;0.10;;;15.70;99.90;;;;;;5051700;28;20373;-74
2021/07/12 01:10:14;;;;;;;0.10;0.10;;;15.40;99.90;;;;;;5054035;28;20017;-74
2021/07/12 01:12:47;;;;;;;0.10;0.10;;;15.30;99.90;;;;;;5053611;28;20481;-74
2021/07/12 01:15:16;;;;;;;0.10;0.10;;;15.30;99.90;;;;;;5052492;28;20021;-74
2021/07/12 01:17:55;;;;;;;0.10;0.10;;;15.40;99.90;;;;;;5036081;28;20021;-74
2021/07/12 01:20:42;;;;;;;0.15;0.15;;;15.40;99.90;;;;;;5052402;28;20440;-74
2021/07/12 01:23:23;;;;;;;0.10;0.10;;;15.50;99.90;;;;;;5053579;28;20044;-74
2021/07/12 01:26:13;;;;;;;0.10;0.10;;;15.50;99.90;;;;;;5053527;28;20025;-74
2021/07/12 01:29:27;;;;;;;0.10;0.10;;;15.60;99.90;;;;;;5053618;28;20018;-74
2021/07/12 01:32:20;;;;;;;0.10;0.10;;;15.60;99.90;;;;;;4994928;28;20025;-74
2021/07/12 01:34:58;;;;;;;0.10;0.10;;;15.60;99.90;;;;;;5011364;28;20129;-74
2021/07/12 01:37:43;;;;;;;0.20;0.20;;;15.60;99.90;;;;;;5044306;28;20112;-74
2021/07/12 01:40:18;;;;;;;0.10;0.10;;;15.40;99.90;;;;;;5053237;28;20032;-74
2021/07/12 01:42:53;;;;;;;0.10;0.10;;;15.30;99.90;;;;;;5052138;28;20029;-74
2021/07/12 01:45:21;;;;;;;0.10;0.10;;;15.20;99.90;;;;;;5053124;28;20500;-74
2021/07/12 01:48:14;;;;;;;0.17;0.17;;;15.20;99.90;;;;;;5053308;28;20013;-74
2021/07/12 01:50:58;;;;;;;0.22;0.17;;;15.10;99.90;;;;;;5053414;28;20025;-74
2021/07/12 01:53:34;;;;;;;0.10;0.10;;;15.20;99.90;;;;;;5052875;28;20021;-74
2021/07/12 01:56:29;;;;;;;0.10;0.10;;;15.10;99.90;;;;;;5053015;28;20056;-74
2021/07/12 01:59:05;;;;;;;0.10;0.10;;;15.30;99.90;;;;;;5043006;28;20172;-74
2021/07/12 02:01:34;;;;;;;0.10;0.10;;;15.40;99.90;;;;;;5052685;28;20021;-74
2021/07/12 02:04:02;;;;;;;0.10;0.10;;;15.40;99.90;;;;;;5051558;28;20431;-74
2021/07/12 02:06:33;;;;;;;0.10;0.10;;;15.40;99.90;;;;;;5052560;28;20078;-74
2021/07/12 02:09:00;;;;;;;0.22;0.22;;;15.50;99.90;;;;;;5052615;28;20090;-74
2021/07/12 02:11:27;;;;;;;0.10;0.10;;;15.60;99.90;;;;;;5052463;28;20383;-74
2021/07/12 02:13:53;;;;;;;0.10;0.10;;;15.70;99.90;;;;;;5052592;28;20013;-74
2021/07/12 02:16:21;;;;;;;0.10;0.10;;;15.60;99.90;;;;;;5051181;28;20025;-74
2021/07/12 02:18:49;;;;;;;0.10;0.10;;;15.40;99.90;;;;;;5051290;28;20431;-74
2021/07/12 02:21:16;;;;;;;0.10;0.10;;;15.30;99.90;;;;;;5050991;28;20396;-74
2021/07/12 02:23:44;;;;;;;0.10;0.10;;;15.10;99.90;;;;;;5052420;28;20413;-74
2021/07/12 02:26:12;;;;;;;0.10;0.10;;;14.90;99.90;;;;;;5052319;28;20056;-74
2021/07/12 02:28:43;;;;;;;0.10;0.10;;;14.90;99.90;;;;;;5052817;28;20024;-74
2021/07/12 02:31:12;;;;;;;0.10;0.10;;;14.80;99.90;;;;;;5050760;28;20385;-74
2021/07/12 02:33:39;;;;;;;0.10;0.10;;;15.00;99.90;;;;;;5052248;28;20021;-74
2021/07/12 02:36:06;;;;;;;0.15;0.15;;;15.00;99.90;;;;;;5052178;28;20037;-74
2021/07/12 02:38:35;;;;;;;0.10;0.10;;;14.90;99.90;;;;;;5051020;28;20079;-74
2021/07/12 02:41:01;;;;;;;0.10;0.10;;;14.80;99.90;;;;;;5051916;28;20047;-74
2021/07/12 02:43:28;;;;;;;0.10;0.10;;;14.60;99.90;;;;;;5051967;28;20040;-74
2021/07/12 02:45:55;;;;;;;0.10;0.10;;;14.60;99.90;;;;;;5052226;28;20490;-74
2021/07/12 02:48:21;;;;;;;0.10;0.10;;;14.60;99.90;;;;;;5052179;28;20433;-74
2021/07/12 02:50:52;;;;;;;0.10;0.10;;;14.60;99.90;;;;;;5034027;28;20059;-74
2021/07/12 02:53:29;;;;;;;0.10;0.10;;;14.40;99.90;;;;;;5050735;28;20021;-74
2021/07/12 02:55:56;;;;;;;0.10;0.10;;;14.40;99.90;;;;;;5051956;28;20506;-74
2021/07/12 02:58:22;;;;;;;0.13;0.13;;;14.30;99.90;;;;;;5051974;28;20119;-74
2021/07/12 03:00:47;;;;;;;0.10;0.10;;;14.30;99.90;;;;;;5050430;28;20021;-74
2021/07/12 03:03:13;;;;;;;0.10;0.10;;;14.20;99.90;;;;;;5050563;28;20086;-74
2021/07/12 03:05:41;;;;;;;0.10;0.10;;;14.30;99.90;;;;;;5033828;28;20472;-74
2021/07/12 03:08:22;;;;;;;0.20;0.20;;;14.20;99.90;;;;;;5065449;22;20128;-77
2021/07/12 03:10:55;;;;;;;0.10;0.10;;;14.30;99.90;;;;;;5050246;28;20052;-77
2021/07/12 03:13:52;;;;;;;0.10;0.10;;;14.30;99.90;;;;;;5050910;28;20032;-77
2021/07/12 03:16:18;;;;;;;0.10;0.10;;;14.30;99.90;;;;;;5049734;28;20033;-76
2021/07/12 03:18:55;;;;;;;0.10;0.10;;;14.30;99.90;;;;;;5034260;28;20086;-77
2021/07/12 03:21:23;;;;;;;0.10;0.10;;;14.20;99.90;;;;;;5050593;28;20021;-77
2021/07/12 03:23:52;;;;;;;0.13;0.13;;;14.20;99.90;;;;;;5050710;28;20025;-77
2021/07/12 03:26:20;;;;;;;0.10;0.10;;;14.30;99.90;;;;;;5050644;28;20068;-77
2021/07/12 03:28:50;;;;;;;0.10;0.10;;;14.50;99.90;;;;;;5052093;28;20449;-77
2021/07/12 03:31:20;;;;;;;0.10;0.10;;;14.60;99.90;;;;;;5056301;28;20021;-78
2021/07/12 03:33:48;;;;;;;0.20;0.20;;;14.70;99.90;;;;;;5054790;28;20029;-76
2021/07/12 03:36:14;;;;;;;0.10;0.10;;;14.60;99.90;;;;;;5055938;28;20415;-77
2021/07/12 03:38:40;;;;;;;0.10;0.10;;;14.40;99.90;;;;;;5056033;28;20028;-77
2021/07/12 03:41:06;;;;;;;0.10;0.10;;;14.20;99.90;;;;;;5055598;28;20032;-76
2021/07/12 03:43:32;;;;;;;0.13;0.13;;;14.00;99.90;;;;;;5055817;28;20165;-77
2021/07/12 03:46:00;;;;;;;0.10;0.10;;;14.10;99.90;;;;;;5037923;28;20025;-76
2021/07/12 03:48:37;;;;;;;0.10;0.10;;;14.10;99.90;;;;;;5054587;28;20597;-77
2021/07/12 03:51:05;;;;;;;0.10;0.10;;;14.10;99.90;;;;;;5054257;28;20024;-77
2021/07/12 03:53:32;;;;;;;0.10;0.10;;;14.10;99.90;;;;;;5037763;28;20109;-76
2021/07/12 03:55:58;;;;;;;0.10;0.10;;;14.10;99.90;;;;;;5054583;28;20515;-77
2021/07/12 03:58:24;;;;;;;0.10;0.10;;;14.20;99.90;;;;;;5055708;28;20104;-76
2021/07/12 04:00:50;;;;;;;0.10;0.10;;;14.30;99.90;;;;;;5055472;28;20445;-77
2021/07/12 04:03:16;;;;;;;0.10;0.10;;;14.30;99.90;;;;;;5054231;28;20075;-76
2021/07/12 04:05:41;;;;;;;0.10;0.10;;;14.30;99.90;;;;;;5037547;28;20104;-76
2021/07/12 04:08:07;;;;;;;0.10;0.10;;;14.50;99.90;;;;;;5055461;28;20033;-77
2021/07/12 04:10:33;;;;;;;0.10;0.10;;;14.50;99.90;;;;;;5055374;28;20013;-77
2021/07/12 04:12:59;;;;;;;0.00;0.00;;;14.60;99.90;;;;;;5053707;28;20435;-77
2021/07/12 04:15:24;;;;;;;0.10;0.10;;;14.80;99.90;;;;;;5053938;28;20025;-77
2021/07/12 04:17:50;;;;;;;0.10;0.10;;;14.90;99.90;;;;;;5054251;28;20021;-78
2021/07/12 04:20:16;;;;;;;0.10;0.10;;;15.10;99.90;;;;;;5055116;28;20024;-77
2021/07/12 04:22:43;;;;;;;0.10;0.10;;;15.20;99.90;;;;;;5054780;28;20504;-77
2021/07/12 04:25:10;;;;;;;0.10;0.10;;;15.20;99.90;;;;;;5053845;28;20032;-77
2021/07/12 04:27:37;;;;;;;0.10;0.10;;;15.20;99.90;;;;;;5054176;28;20033;-77
2021/07/12 04:30:05;;;;;;;0.10;0.10;;;15.00;99.90;;;;;;5037290;28;20136;-77
2021/07/12 04:32:31;;;;;;;0.10;0.10;;;14.90;99.90;;;;;;5054681;28;20021;-77
2021/07/12 04:34:56;;;;;;;0.10;0.10;;;14.90;99.90;;;;;;5053753;28;20043;-77
2021/07/12 04:37:22;;;;;;;0.32;0.20;;;15.00;99.90;;;;;;5054852;28;20021;-77
2021/07/12 04:39:48;;;;;;;0.10;0.10;;;15.20;99.90;;;;;;5054986;28;20032;-76
2021/07/12 04:42:14;;;;;;;0.40;0.40;;;15.10;99.90;;;;;;5053506;28;20021;-77
2021/07/12 04:44:40;;;;;;;0.20;0.20;;;15.00;99.90;;;;;;5037060;28;20025;-77
2021/07/12 04:47:06;;;;;;;0.10;0.10;;;14.90;99.90;;;;;;5054742;28;20021;-77
2021/07/12 04:49:32;;;;;;;0.10;0.10;;;14.90;99.90;;;;;;5054795;28;20021;-77
2021/07/12 04:51:58;;;;;;;0.05;0.05;;;15.00;99.90;;;;;;5053369;28;20082;-77
2021/07/12 04:54:24;;;;;;;0.30;0.30;;;15.20;99.90;;;;;;5053351;28;20389;-77
2021/07/12 04:56:50;;;;;;;1.48;1.38;;;15.10;99.90;;;;;;5053268;28;20442;-77
2021/07/12 04:59:17;;;;;;;0.10;0.10;;;15.30;99.90;;;;;;5054470;28;20025;-77
2021/07/12 05:01:43;;;;;;;0.10;0.10;;;15.40;99.90;;;;;;5054145;28;20029;-77
2021/07/12 05:04:10;;;;;;;0.10;0.10;;;15.60;99.90;;;;;;5054391;28;20028;-77
2021/07/12 05:06:36;;;;;;;0.05;0.05;;;15.80;99.90;;;;;;5052941;28;20037;-78
2021/07/12 05:09:02;;;;;;;0.10;0.10;;;15.90;99.90;;;;;;5052844;28;20033;-77
2021/07/12 05:11:29;;;;;;;0.00;0.00;;;16.00;99.90;;;;;;5052716;28;20028;-77
2021/07/12 05:13:55;;;;;;;0.10;0.10;;;15.90;99.90;;;;;;5052924;28;20028;-78
2021/07/12 05:16:21;;;;;;;0.45;0.40;;;15.70;99.90;;;;;;5054220;28;20032;-77
2021/07/12 05:18:48;;;;;;;0.10;0.10;;;15.80;99.90;;;;;;5054034;28;20073;-77
2021/07/12 05:21:14;;;;;;;0.10;0.10;;;15.80;99.90;;;;;;5053900;28;20399;-77
2021/07/12 05:23:40;;;;;;;0.30;0.30;;;15.80;99.90;;;;;;5052664;28;20023;-77
2021/07/12 05:26:06;;;;;;;0.10;0.10;;;15.80;99.90;;;;;;5052682;28;20100;-77
2021/07/12 05:28:32;;;;;;;0.10;0.10;;;15.90;99.90;;;;;;5052935;28;20021;-77
2021/07/12 05:30:58;;;;;;;0.10;0.10;;;16.20;99.90;;;;;;5052562;28;20059;-77
2021/07/12 05:33:24;;;;;;;2.30;1.75;;;16.10;99.90;;;;;;5035860;28;20053;-77
2021/07/12 05:35:49;;;;;;;0.10;0.10;;;16.20;99.90;;;;;;5050349;28;20047;-78
2021/07/12 05:38:15;;;;;;;0.00;0.00;;;16.30;99.90;;;;;;5058106;28;20147;-77
2021/07/12 05:40:41;;;;;;;0.00;0.00;;;16.50;99.90;;;;;;5052871;28;20104;-77
2021/07/12 05:43:08;;;;;;;0.10;0.10;;;16.60;99.90;;;;;;5051923;28;20112;-77
2021/07/12 05:45:34;;;;;;;0.10;0.10;;;16.80;99.90;;;;;;5051537;28;20064;-77
2021/07/12 05:48:00;;;;;;;0.10;0.10;;;17.00;99.90;;;;;;5050689;28;20044;-77
2021/07/12 05:50:26;;;;;;;0.10;0.10;;;17.10;99.90;;;;;;5051327;28;20456;-77
2021/07/12 05:52:52;;;;;;;0.10;0.10;;;17.20;99.90;;;;;;5057608;28;20492;-77
2021/07/12 05:55:18;;;;;;;0.10;0.10;;;17.30;99.90;;;;;;5054659;28;20020;-77
2021/07/12 05:57:43;;;;;;;0.10;0.10;;;17.40;99.90;;;;;;5050621;28;20082;-77
2021/07/12 06:00:11;;;;;;;0.10;0.10;;;17.50;99.90;;;;;;5051469;28;20463;-77
2021/07/12 06:02:37;;;;;;;0.10;0.10;;;17.50;99.90;;;;;;5051509;28;20028;-78
2021/07/12 06:05:04;;;;;;;0.10;0.10;;;17.50;99.90;;;;;;5056668;28;20388;-76
2021/07/12 06:07:30;;;;;;;0.10;0.10;;;17.50;99.90;;;;;;5029018;28;20028;-76
2021/07/12 06:09:56;;;;;;;0.10;0.10;;;17.50;99.90;;;;;;5052872;28;20016;-76
2021/07/12 06:12:21;;;;;;;0.10;0.10;;;17.40;99.90;;;;;;5051306;28;20480;-76
2021/07/12 06:14:47;;;;;;;0.20;0.20;;;17.30;99.90;;;;;;5050195;28;20028;-76
2021/07/12 06:17:13;;;;;;;0.40;0.35;;;17.50;99.90;;;;;;5053605;28;20107;-76
2021/07/12 06:19:39;;;;;;;0.10;0.10;;;17.50;99.90;;;;;;5057384;28;20091;-77
2021/07/12 06:22:04;;;;;;;0.10;0.10;;;17.70;99.90;;;;;;5054333;28;20025;-78
2021/07/12 06:24:30;;;;;;;0.10;0.10;;;17.90;99.90;;;;;;5056704;28;20092;-77
2021/07/12 06:26:56;;;;;;;0.00;0.00;;;18.00;99.90;;;;;;5056620;28;20447;-78
2021/07/12 06:29:22;;;;;;;0.00;0.00;;;18.20;99.90;;;;;;5058993;28;20033;-77
2021/07/12 06:31:49;;;;;;;0.25;0.25;;;18.30;99.90;;;;;;5054499;28;20021;-78
2021/07/12 06:34:15;;;;;;;0.10;0.10;;;18.30;99.90;;;;;;5055131;28;20028;-78
2021/07/12 06:36:41;;;;;;;0.10;0.10;;;18.40;99.90;;;;;;5054303;28;20025;-78
2021/07/12 06:39:07;;;;;;;0.10;0.10;;;18.60;99.90;;;;;;5052626;28;20084;-77
2021/07/12 06:41:34;;;;;;;0.10;0.10;;;18.50;99.90;;;;;;5040234;28;20506;-79
2021/07/12 06:44:00;;;;;;;0.10;0.10;;;18.50;99.90;;;;;;5057932;28;20021;-83
2021/07/12 06:46:26;;;;;;;0.10;0.10;;;18.70;99.90;;;;;;5039629;28;20045;-78
2021/07/12 06:48:52;;;;;;;0.10;0.10;;;18.70;99.90;;;;;;5055736;28;20021;-77
2021/07/12 06:51:18;;;;;;;0.10;0.10;;;18.80;99.90;;;;;;5037461;28;20016;-78
2021/07/12 06:53:45;;;;;;;0.05;0.05;;;18.80;99.90;;;;;;5055077;28;20473;-78
2021/07/12 06:56:13;;;;;;;0.10;0.10;;;19.00;99.90;;;;;;5056396;28;20021;-77
2021/07/12 06:58:39;;;;;;;0.68;0.68;;;19.00;99.90;;;;;;5056861;28;20084;-77
2021/07/12 07:01:04;;;;;;;0.00;0.00;;;18.90;99.90;;;;;;5037375;28;20079;-78
2021/07/12 07:03:30;;;;;;;0.10;0.10;;;19.10;99.90;;;;;;5036902;28;20024;-78
2021/07/12 07:05:56;;;;;;;0.10;0.10;;;19.20;99.90;;;;;;5055110;28;20032;-78
2021/07/12 07:08:22;;;;;;;2.92;1.48;;;19.50;99.90;;;;;;5054470;28;20025;-78
2021/07/12 07:10:47;;;;;;;0.10;0.10;;;19.50;99.90;;;;;;5055744;28;20438;-77
2021/07/12 07:13:13;;;;;;;0.10;0.10;;;19.60;99.90;;;;;;5054108;28;20412;-78
2021/07/12 07:15:39;;;;;;;0.20;0.20;;;19.80;99.90;;;;;;5054322;28;20025;-78
2021/07/12 07:18:05;;;;;;;0.08;0.08;;;19.80;99.90;;;;;;5036348;28;20033;-78
2021/07/12 07:20:31;;;;;;;0.22;0.22;;;19.70;99.90;;;;;;5055635;28;20029;-78
2021/07/12 07:22:57;;;;;;;0.30;0.30;;;19.70;99.90;;;;;;5054816;28;20515;-78
2021/07/12 07:25:23;;;;;;;0.10;0.10;;;19.80;99.90;;;;;;5055283;28;20361;-78
2021/07/12 07:27:48;;;;;;;0.10;0.10;;;19.90;99.90;;;;;;5054902;28;20036;-78
2021/07/12 07:30:15;;;;;;;0.08;0.08;;;19.90;99.90;;;;;;5055302;28;20021;-78
2021/07/12 07:32:41;;;;;;;0.10;0.10;;;20.10;99.90;;;;;;5037808;28;20024;-78
2021/07/12 07:35:07;;;;;;;0.10;0.10;;;20.10;99.90;;;;;;5038770;28;20555;-78
2021/07/12 07:37:34;;;;;;;0.00;0.00;;;20.10;99.90;;;;;;5057690;28;20079;-77
2021/07/12 07:40:00;;;;;;;0.10;0.10;;;20.20;99.90;;;;;;5057340;28;20020;-78
2021/07/12 07:42:26;;;;;;;0.00;0.00;;;20.50;99.90;;;;;;5056192;28;20024;-78
2021/07/12 07:44:52;;;;;;;0.10;0.10;;;20.70;99.90;;;;;;5055828;28;20021;-77
2021/07/12 07:47:18;;;;;;;0.10;0.10;;;20.80;99.90;;;;;;5054642;28;20078;-78
2021/07/12 07:49:44;;;;;;;0.10;0.10;;;21.00;99.90;;;;;;5051554;28;20104;-78
2021/07/12 07:52:10;;;;;;;0.00;0.00;;;21.20;99.90;;;;;;5039540;28;20508;-78
2021/07/12 07:54:36;;;;;;;0.35;0.28;;;21.40;98.70;;;;;;5055905;28;20296;-78
2021/07/12 07:57:02;;;;;;;0.10;0.10;;;21.30;98.00;;;;;;5056410;28;20031;-78
2021/07/12 07:59:28;;;;;;;0.10;0.10;;;21.20;97.50;;;;;;5055606;28;20033;-78
2021/07/12 08:01:53;;;;;;;0.10;0.10;;;21.40;97.60;;;;;;5056851;28;20079;-78
2021/07/12 08:04:19;;;;;;;0.40;0.40;;;21.40;95.40;;;;;;5051307;28;20029;-78
2021/07/12 08:06:45;;;;;;;0.10;0.10;;;21.40;95.20;;;;;;5055005;28;20382;-78
2021/07/12 08:09:11;;;;;;;0.00;0.00;;;21.40;96.40;;;;;;5055401;28;20040;-78
2021/07/12 08:11:36;;;;;;;0.38;0.38;;;21.40;96.60;;;;;;5057761;28;20039;-78
2021/07/12 08:14:03;;;;;;;0.10;0.10;;;21.70;96.40;;;;;;5037910;28;20025;-77
2021/07/12 08:16:28;;;;;;;0.00;0.00;;;21.90;96.00;;;;;;5059082;28;20036;-78
2021/07/12 08:18:54;;;;;;;0.10;0.10;;;22.00;95.10;;;;;;5043733;28;20566;-78
2021/07/12 08:21:20;;;;;;;0.00;0.00;;;22.00;93.80;;;;;;5062270;28;20080;-78
2021/07/12 08:23:46;;;;;;;0.10;0.10;;;22.30;94.20;;;;;;5059991;28;20041;-78
2021/07/12 08:26:13;;;;;;;0.20;0.20;;;22.40;93.10;;;;;;5066538;28;20082;-78
2021/07/12 08:28:40;;;;;;;0.38;0.38;;;22.50;92.20;;;;;;5064091;28;20158;-78
2021/07/12 08:31:06;;;;;;;0.00;0.00;;;22.50;90.90;;;;;;5056937;28;20049;-78
2021/07/12 08:33:32;;;;;;;0.10;0.10;;;22.40;92.50;;;;;;5057847;28;20107;-79
2021/07/12 08:35:59;;;;;;;0.10;0.10;;;22.70;92.20;;;;;;5057378;28;20102;-78
2021/07/12 08:38:25;;;;;;;0.10;0.10;;;22.90;92.80;;;;;;5058667;28;20025;-78
2021/07/12 08:40:53;;;;;;;0.10;0.10;;;23.00;90.70;;;;;;5040674;28;20539;-78
2021/07/12 08:43:19;;;;;;;0.00;0.00;;;23.10;89.10;;;;;;5057782;28;20100;-78
2021/07/12 08:45:45;;;;;;;0.00;0.00;;;23.00;90.60;;;;;;5058582;28;20071;-79
2021/07/12 08:48:11;;;;;;;0.17;0.17;;;23.20;87.80;;;;;;5058964;28;20025;-78
2021/07/12 08:50:37;;;;;;;0.08;0.08;;;23.30;87.50;;;;;;5040660;28;20027;-79
2021/07/12 08:53:02;;;;;;;0.00;0.00;;;23.30;90.40;;;;;;5058467;28;20017;-78
2021/07/12 08:55:28;;;;;;;0.00;0.00;;;23.60;90.30;;;;;;5058171;28;20040;-78
2021/07/12 08:58:00;;;;;;;0.00;0.00;;;23.80;89.10;;;;;;5060815;28;20062;-78
2021/07/12 09:00:45;;;;;;;;;;;24.10;87.10;;;;;;5060046;28;20029;-78
2021/07/12 09:03:18;;;;;;;0.08;0.08;;;24.30;86.00;;;;;;5053539;28;19905;-78
2021/07/12 09:06:11;;;;;;;0.43;0.43;;;24.00;85.10;;;;;;5060771;28;20029;-78
2021/07/12 09:08:46;;;;;;;0.00;0.00;;;24.10;85.70;;;;;;5053146;28;20404;-77
2021/07/12 09:11:15;;;;;;;0.05;0.05;;;24.00;85.10;;;;;;5053916;28;20014;-76
2021/07/12 09:13:49;;;;;;;0.05;0.05;;;24.10;83.60;;;;;;5054971;28;20025;-77
2021/07/12 09:16:36;;;;;;;0.20;0.20;;;24.00;83.10;;;;;;5054220;28;20029;-77
2021/07/12 09:19:28;;;;;;;0.00;0.00;;;24.10;85.20;;;;;;5033844;28;20516;-76
2021/07/12 09:21:56;;;;;;;;;;;24.10;85.50;;;;;;5050084;28;20036;-77
2021/07/12 09:24:25;;;;;;;0.35;0.35;;;24.30;83.00;;;;;;5051765;28;19940;-76
2021/07/12 09:26:55;;;;;;;0.00;0.00;;;24.40;81.60;;;;;;5050955;28;20389;-76
2021/07/12 09:29:24;;;;;;;0.00;0.00;;;24.30;79.10;;;;;;5050597;28;20036;-76
2021/07/12 09:31:51;;;;;;;0.85;0.47;;;24.30;79.20;;;;;;5050961;28;20439;-76
2021/07/12 09:34:18;;;;;;;0.00;0.00;;;24.60;79.20;;;;;;5051168;28;20098;-76
2021/07/12 09:36:45;;;;;;;0.40;0.40;;;24.60;76.20;;;;;;5051517;28;20035;-76
2021/07/12 09:39:19;;;;;;;0.00;0.00;;;24.90;78.10;;;;;;5053042;28;20032;-77
2021/07/12 09:41:50;;;;;;;0.00;0.00;;;25.00;78.70;;;;;;5034300;28;20114;-77
2021/07/12 09:44:21;;;;;;;0.00;0.00;;;25.30;78.70;;;;;;5052774;28;20017;-77
2021/07/12 09:46:47;;;;;;;0.38;0.38;;;25.70;78.00;;;;;;5051316;28;20469;-77
2021/07/12 09:49:16;;;;;;;0.00;0.00;;;25.90;75.90;;;;;;5034695;28;20494;-77
2021/07/12 09:51:43;;;;;;;0.00;0.00;;;26.10;74.70;;;;;;5050579;28;20017;-77
2021/07/12 09:54:31;;;;;;;0.20;0.20;;;26.30;73.50;;;;;;5051591;28;20060;-77
2021/07/12 09:57:08;;;;;;;0.00;0.00;;;26.20;72.50;;;;;;5052194;28;20025;-77
2021/07/12 09:59:35;;;;;;;0.00;0.00;;;26.20;73.90;;;;;;5051604;28;20029;-78
2021/07/12 10:02:03;;;;;;;0.20;0.20;;;26.20;72.20;;;;;;5051866;28;20017;-78
2021/07/12 10:04:29;;;;;;;0.00;0.00;;;26.30;72.20;;;;;;5052213;28;20040;-77
2021/07/12 10:06:55;;;;;;;2.25;0.30;;;26.50;72.10;;;;;;5050600;28;20021;-77
2021/07/12 10:09:22;;;;;;;0.10;0.10;;;26.70;71.40;;;;;;5051930;28;20036;-77
2021/07/12 10:11:53;;;;;;;0.08;0.08;;;26.70;69.90;;;;;;5051658;28;20031;-78
2021/07/12 10:14:22;;;;;;;0.40;0.13;;;26.70;71.10;;;;;;5052033;28;20516;-77
2021/07/12 10:16:50;;;;;;;0.00;0.00;;;26.80;69.70;;;;;;5045914;28;20025;-77
2021/07/12 10:19:19;;;;;;;0.00;0.00;;;27.10;67.60;;;;;;5052005;28;20587;-77
2021/07/12 10:21:50;;;;;;;0.00;0.00;;;27.30;66.30;;;;;;5036105;28;20025;-78
2021/07/12 10:24:17;;;;;;;;;;;27.50;66.30;;;;;;5052419;28;20032;-77
2021/07/12 10:26:50;;;;;;;0.00;0.00;;;27.50;65.00;;;;;;5048977;28;20334;-77
2021/07/12 10:29:22;;;;;;;0.00;0.00;;;27.80;64.70;;;;;;5052837;28;20025;-77
2021/07/12 10:31:57;;;;;;;0.10;0.10;;;27.90;63.80;;;;;;5051727;28;20075;-77
2021/07/12 10:34:37;;;;;;;0.10;0.10;;;28.00;64.80;;;;;;5046511;28;20116;-77
2021/07/12 10:37:16;;;;;;;0.00;0.00;;;27.60;64.90;;;;;;5050492;28;20025;-77
2021/07/12 10:39:57;;;;;;;8.77;1.85;;;27.50;67.80;;;;;;5049640;28;20021;-77
2021/07/12 10:42:41;;;;;;;0.15;0.10;;;27.30;68.50;;;;;;5051221;28;20488;-78
2021/07/12 10:45:14;;;;;;;0.08;0.08;;;27.80;67.30;;;;;;5050123;28;20052;-77
2021/07/12 10:48:06;;;;;;;0.00;0.00;;;27.90;64.60;;;;;;5051400;28;20480;-78
2021/07/12 10:50:35;;;;;;;0.00;0.00;;;28.00;64.00;;;;;;5043651;28;20029;-77
2021/07/12 10:53:22;;;;;;;0.90;0.32;;;27.80;66.10;;;;;;5051824;28;20017;-77
2021/07/12 10:55:57;;;;;;;0.90;0.90;;;28.10;64.60;;;;;;5036884;28;20124;-77
2021/07/12 10:58:29;;;;;;;0.00;0.00;;;28.40;63.80;;;;;;5047187;28;20392;-77
2021/07/12 11:01:04;;;;;;;0.00;0.00;;;28.40;63.00;;;;;;5051708;28;20025;-77
2021/07/12 11:03:37;;;;;;;0.00;0.00;;;28.20;63.60;;;;;;5051938;28;20029;-77
2021/07/12 11:06:04;;;;;;;0.35;0.35;;;28.30;63.40;;;;;;5050132;28;20370;-77
2021/07/12 11:08:49;;;;;;;0.20;0.20;;;28.10;60.30;;;;;;5051989;28;20029;-77
2021/07/12 11:11:18;;;;;;;0.00;0.00;;;28.10;62.50;;;;;;5046774;28;20391;-77
2021/07/12 11:13:57;;;;;;;0.00;0.00;;;28.30;61.60;;;;;;5051554;28;20535;-77
2021/07/12 11:16:38;;;;;;;0.00;0.00;;;28.70;60.60;;;;;;5050018;28;20025;-77
2021/07/12 11:19:28;;;;;;;0.22;0.22;;;28.70;61.20;;;;;;5051903;28;20025;-77
2021/07/12 11:22:14;;;;;;;0.13;0.13;;;28.50;60.00;;;;;;5048621;28;20033;-77
2021/07/12 11:24:59;;;;;;;0.85;0.63;;;28.20;62.60;;;;;;5030257;28;20057;-77
2021/07/12 11:27:38;;;;;;;0.20;0.17;;;27.70;61.40;;;;;;5033207;28;20025;-77
2021/07/12 11:30:23;;;;;;;1.55;0.45;;;27.50;63.20;;;;;;5051560;28;20025;-77
2021/07/12 11:32:49;;;;;;;0.65;0.65;;;27.90;62.80;;;;;;5045810;28;20027;-77
2021/07/12 11:35:15;;;;;;;0.00;0.00;;;28.20;61.50;;;;;;5051492;28;20021;-77
2021/07/12 11:37:41;;;;;;;0.10;0.10;;;28.40;62.70;;;;;;5052193;28;20043;-77
2021/07/12 11:40:08;;;;;;;0.00;0.00;;;28.60;61.40;;;;;;5051018;28;20088;-77
2021/07/12 11:42:37;;;;;;;0.00;0.00;;;28.40;61.90;;;;;;5048470;28;20025;-77
2021/07/12 11:45:06;;;;;;;0.00;0.00;;;28.60;60.60;;;;;;5051113;28;20442;-76
2021/07/12 11:47:33;;;;;;;0.00;0.00;;;28.80;61.20;;;;;;5050544;28;20098;-77
2021/07/12 11:50:14;;;;;;;0.00;0.00;;;28.90;61.00;;;;;;5049858;28;20024;-78
2021/07/12 11:52:51;;;;;;;0.25;0.25;;;28.70;63.00;;;;;;5054538;28;20017;-77
2021/07/12 11:55:23;;;;;;;0.00;0.00;;;28.40;62.80;;;;;;5053610;28;20029;-77
2021/07/12 11:57:51;;;;;;;0.00;0.00;;;28.40;63.40;;;;;;5054163;28;20021;-78
2021/07/12 12:00:24;;;;;;;0.22;0.22;;;28.10;63.80;;;;;;5054875;28;20030;-77
2021/07/12 12:03:11;;;;;;;0.00;0.00;;;28.00;65.30;;;;;;5054115;28;20574;-77
2021/07/12 12:05:39;;;;;;;0.17;0.15;;;28.10;64.20;;;;;;5053332;28;20032;-77
2021/07/12 12:08:06;;;;;;;0.00;0.00;;;27.90;63.90;;;;;;5052662;28;20138;-78
2021/07/12 12:10:39;;;;;;;0.05;0.03;;;27.90;64.10;;;;;;5054741;28;20059;-77
2021/07/12 12:13:11;;;;;;;0.00;0.00;;;27.80;64.20;;;;;;5036474;28;20049;-77
2021/07/12 12:15:39;;;;;;;0.05;0.05;;;27.90;66.20;;;;;;5053315;28;20063;-79
2021/07/12 12:18:07;;;;;;;0.35;0.28;;;27.80;65.60;;;;;;5054179;28;20028;-77
2021/07/12 12:20:39;;;;;;;0.00;0.00;;;27.60;66.80;;;;;;5036290;28;20025;-77
2021/07/12 12:23:05;;;;;;;0.00;0.00;;;27.60;65.30;;;;;;5053509;28;20021;-76
2021/07/12 12:25:41;;;;;;;0.15;0.15;;;27.50;63.90;;;;;;5054300;28;22088;-76
2021/07/12 12:28:07;;;;;;;0.00;0.00;;;27.30;64.90;;;;;;5054168;28;20492;-77
2021/07/12 12:30:35;;;;;;;0.28;0.28;;;27.40;65.40;;;;;;5054135;28;20029;-76
2021/07/12 12:33:01;;;;;;;0.08;0.08;;;27.30;63.90;;;;;;5052350;28;20384;-77
2021/07/12 12:35:29;;;;;;;0.03;0.03;;;27.20;64.60;;;;;;5054272;28;20095;-77
2021/07/12 12:38:12;;;;;;;0.13;0.13;;;27.10;65.70;;;;;;5053730;28;20091;-76
2021/07/12 12:40:38;;;;;;;0.00;0.00;;;27.10;65.50;;;;;;5052923;28;20032;-76
2021/07/12 12:43:11;;;;;;;0.00;0.00;;;27.00;67.30;;;;;;5052209;28;20036;-76
2021/07/12 12:45:43;;;;;;;0.15;0.10;;;27.10;66.50;;;;;;5052845;28;20032;-77
2021/07/12 12:48:09;;;;;;;0.45;0.35;;;27.20;66.90;;;;;;5046338;28;20029;-76
2021/07/12 12:50:38;;;;;;;0.00;0.00;;;27.10;66.40;;;;;;5052644;28;20504;-76
2021/07/12 12:53:08;;;;;;;0.15;0.15;;;27.10;65.40;;;;;;5056252;28;20631;-77
2021/07/12 12:55:35;;;;;;;0.15;0.15;;;26.80;64.90;;;;;;5053700;28;20100;-78
2021/07/12 12:58:11;;;;;;;0.00;0.00;;;26.70;66.80;;;;;;5051911;28;20116;-77
2021/07/12 13:00:38;;;;;;;0.00;0.00;;;26.50;64.80;;;;;;5052855;28;20040;-76